createdAt,value
2018-09-01T00:01:26.564Z,17.7
2018-09-01T00:11:25.232Z,15.4
2018-09-01T00:21:25.470Z,15.4
2018-09-01T00:31:26.781Z,15.8
2018-09-01T00:41:25.753Z,15.2
2018-09-01T00:51:26.965Z,16.8
2018-09-01T01:01:26.444Z,17.6
2018-09-01T01:11:27.288Z,19.0
2018-09-01T01:21:25.785Z,19.9
2018-09-01T01:31:27.612Z,20.7
2018-09-01T01:41:25.904Z,18.9
2018-09-01T01:51:27.345Z,20.9
2018-09-01T02:01:26.329Z,19.1
2018-09-01T02:11:26.381Z,18.5
2018-09-01T02:21:26.599Z,18.2
2018-09-01T02:31:27.407Z,17.7
2018-09-01T02:41:27.072Z,17.9
2018-09-01T02:51:25.225Z,18.3
2018-09-01T03:01:26.530Z,18.1
2018-09-01T03:11:26.560Z,18.7
2018-09-01T03:21:26.981Z,20.0
2018-09-01T03:31:26.192Z,18.8
2018-09-01T03:41:26.905Z,18.6
2018-09-01T03:51:26.919Z,18.2
2018-09-01T04:01:26.676Z,17.6
2018-09-01T04:11:25.916Z,18.6
2018-09-01T04:21:26.155Z,18.4
2018-09-01T04:31:25.082Z,17.0
2018-09-01T04:41:25.269Z,17.4
2018-09-01T04:51:29.106Z,17.7
2018-09-01T05:01:25.378Z,17.6
2018-09-01T05:11:26.447Z,15.7
2018-09-01T05:21:25.897Z,16.5
2018-09-01T05:31:27.249Z,16.7
2018-09-01T05:41:26.583Z,18.0
2018-09-01T05:51:27.202Z,19.3
2018-09-01T06:01:26.234Z,16.9
2018-09-01T06:11:26.347Z,16.6
2018-09-01T06:21:25.595Z,16.7
2018-09-01T06:31:25.681Z,16.9
2018-09-01T06:41:26.125Z,16.3
2018-09-01T06:51:27.891Z,15.8
2018-09-01T07:01:28.405Z,18.8
2018-09-01T07:11:25.870Z,18.9
2018-09-01T07:21:27.250Z,18.0
2018-09-01T07:31:26.523Z,16.0
2018-09-01T07:41:27.423Z,15.9
2018-09-01T07:51:25.516Z,17.2
2018-09-01T08:01:26.987Z,17.0
2018-09-01T08:11:26.799Z,16.6
2018-09-01T08:21:25.348Z,17.7
2018-09-01T08:31:29.008Z,16.9
2018-09-01T08:41:26.161Z,18.2
2018-09-01T08:51:27.704Z,17.9
2018-09-01T09:01:25.811Z,17.4
2018-09-01T09:11:25.841Z,17.2
2018-09-01T09:21:29.147Z,16.7
2018-09-01T09:31:25.508Z,17.4
2018-09-01T09:41:25.526Z,16.1
2018-09-01T09:51:31.037Z,16.9
2018-09-01T10:01:25.255Z,16.6
2018-09-01T10:11:25.670Z,16.2
2018-09-01T10:21:27.447Z,15.8
2018-09-01T10:31:26.030Z,15.8
2018-09-01T10:41:25.687Z,14.9
2018-09-01T10:51:26.414Z,16.0
2018-09-01T11:01:25.474Z,15.1
2018-09-01T11:11:25.500Z,14.6
2018-09-01T11:21:26.125Z,13.6
2018-09-01T11:31:26.030Z,13.4
2018-09-01T11:41:25.070Z,12.8
2018-09-01T11:51:26.102Z,12.4
2018-09-01T12:01:25.532Z,14.1
2018-09-01T12:11:28.024Z,12.2
2018-09-01T12:21:25.610Z,12.2
2018-09-01T12:31:27.749Z,13.1
2018-09-01T12:41:26.344Z,11.8
2018-09-01T12:51:26.473Z,11.7
2018-09-01T13:01:25.801Z,11.6
2018-09-01T13:11:31.954Z,11.5
2018-09-01T13:21:30.521Z,11.0
2018-09-01T13:31:32.076Z,11.0
2018-09-01T13:41:30.918Z,12.4
2018-09-01T13:51:32.217Z,11.1
2018-09-01T14:01:33.409Z,12.1
2018-09-01T14:11:32.010Z,12.9
2018-09-01T14:21:30.782Z,11.7
2018-09-01T14:31:33.020Z,12.1
2018-09-01T14:41:30.518Z,10.9
2018-09-01T14:51:25.792Z,11.8
2018-09-01T15:01:31.951Z,10.3
2018-09-01T15:11:26.332Z,12.3
2018-09-01T15:21:26.231Z,11.3
2018-09-01T15:31:25.330Z,11.5
2018-09-01T15:41:25.343Z,11.5
2018-09-01T15:51:26.120Z,12.3
2018-09-01T16:01:25.341Z,12.4
2018-09-01T16:11:25.409Z,11.2
2018-09-01T16:21:27.214Z,11.7
2018-09-01T16:31:26.686Z,10.9
2018-09-01T16:41:25.936Z,11.7
2018-09-01T16:51:26.199Z,11.8
2018-09-01T17:01:26.072Z,12.4
2018-09-01T17:11:25.624Z,11.8
2018-09-01T17:21:26.024Z,13.1
2018-09-01T17:31:26.890Z,13.8
2018-09-01T17:41:28.094Z,14.1
2018-09-01T17:51:26.956Z,13.5
2018-09-01T18:01:25.038Z,14.4
2018-09-01T18:11:26.314Z,14.8
2018-09-01T18:21:25.515Z,13.9
2018-09-01T18:31:25.783Z,14.4
2018-09-01T18:41:26.199Z,23.6
2018-09-01T18:51:25.496Z,15.7
2018-09-01T19:01:26.080Z,14.3
2018-09-01T19:11:25.122Z,13.9
2018-09-01T19:21:25.276Z,15.0
2018-09-01T19:31:26.732Z,14.4
2018-09-01T19:41:28.039Z,14.3
2018-09-01T19:51:25.512Z,14.1
2018-09-01T20:01:26.131Z,14.3
2018-09-01T20:11:25.447Z,13.8
2018-09-01T20:21:27.118Z,14.5
2018-09-01T20:31:25.021Z,14.1
2018-09-01T20:41:25.519Z,14.8
2018-09-01T20:51:25.440Z,14.7
2018-09-01T21:01:25.964Z,16.4
2018-09-01T21:11:26.335Z,16.4
2018-09-01T21:21:27.204Z,16.8
2018-09-01T21:31:25.121Z,18.6
2018-09-01T21:41:25.365Z,18.7
2018-09-01T21:51:25.290Z,17.9
2018-09-01T22:01:26.222Z,17.7
2018-09-01T22:11:26.496Z,17.5
2018-09-01T22:21:26.086Z,18.9
2018-09-01T22:31:26.419Z,18.2
2018-09-01T22:41:25.972Z,19.3
2018-09-01T22:51:25.811Z,18.4
2018-09-01T23:01:26.000Z,18.5
2018-09-01T23:11:25.258Z,18.9
2018-09-01T23:21:27.191Z,18.7
2018-09-01T23:31:25.212Z,19.9
2018-09-01T23:41:25.583Z,19.6
2018-09-01T23:51:25.625Z,19.8
